Time;durP1;ratioP1;P1;durP2;ratioP2;P2;SDS_P1;SDS_P2;PMS_P1;PMS_P2;Temp;Humidity;BMP_temperature;BMP_pressure;BME280_temperature;BME280_humidity;BME280_pressure;Samples;Min_cycle;Max_cycle;Signal;HPM_P1;HPM_P2
2021/05/29 00:00:09;;;;;;;461.57;361.47;;;;;;;12.85;63.00;99014.09;5051437;28;20021;-62
2021/05/29 00:02:34;;;;;;;461.67;368.17;;;;;;;12.84;62.83;99012.38;5047156;28;20300;-62
2021/05/29 00:05:00;;;;;;;463.97;374.53;;;;;;;12.84;63.03;99012.38;5046775;28;20267;-62
2021/05/29 00:07:25;;;;;;;462.20;359.77;;;;;;;12.79;63.09;99006.50;5045921;28;20044;-60
2021/05/29 00:09:50;;;;;;;463.47;372.73;;;;;;;12.81;62.64;99002.16;5050457;28;20111;-61
2021/05/29 00:12:16;;;;;;;463.10;370.27;;;;;;;12.78;63.05;99000.50;5048988;28;20063;-60
2021/05/29 00:14:41;;;;;;;467.20;366.97;;;;;;;12.82;62.90;99006.41;5050925;28;20037;-62
2021/05/29 00:17:09;;;;;;;458.80;360.57;;;;;;;12.77;63.00;99015.97;5047220;28;20033;-62
2021/05/29 00:19:35;;;;;;;461.63;359.93;;;;;;;12.70;63.27;99002.38;5051406;28;20040;-62
2021/05/29 00:22:02;;;;;;;457.83;354.40;;;;;;;12.82;63.09;99006.41;5051257;28;20267;-62
2021/05/29 00:24:27;;;;;;;473.03;378.93;;;;;;;12.79;62.76;98996.19;5047438;28;20068;-62
2021/05/29 00:26:53;;;;;;;462.47;367.80;;;;;;;12.74;63.06;99006.59;5036313;28;20119;-62
2021/05/29 00:29:18;;;;;;;460.47;365.27;;;;;;;12.59;63.40;99003.50;5047226;28;20082;-62
2021/05/29 00:31:44;;;;;;;465.43;364.00;;;;;;;12.58;63.56;99001.81;5046233;28;20094;-62
2021/05/29 00:34:10;;;;;;;461.17;355.30;;;;;;;12.62;63.30;98999.13;5048128;28;20523;-62
2021/05/29 00:36:35;;;;;;;458.63;353.50;;;;;;;12.49;63.91;98992.56;5049717;28;20328;-62
2021/05/29 00:39:03;;;;;;;461.13;363.90;;;;;;;12.44;64.48;99001.22;5046836;28;20029;-62
2021/05/29 00:41:28;;;;;;;457.90;341.93;;;;;;;12.36;64.40;99002.25;5044618;28;20037;-62
2021/05/29 00:43:53;;;;;;;457.67;346.47;;;;;;;12.34;64.52;98991.16;5052849;28;20356;-62
2021/05/29 00:46:19;;;;;;;457.40;342.53;;;;;;;12.32;64.48;98992.91;5046079;28;20033;-62
2021/05/29 00:48:44;;;;;;;455.90;340.23;;;;;;;12.24;64.54;98984.50;5049505;28;20712;-62
2021/05/29 00:51:10;;;;;;;456.23;337.00;;;;;;;12.16;64.57;98991.53;5046982;28;20029;-61
2021/05/29 00:53:36;;;;;;;454.87;326.97;;;;;;;12.13;64.48;98999.31;5047842;28;20029;-61
2021/05/29 00:56:04;;;;;;;455.77;341.60;;;;;;;12.24;64.03;99001.66;5036512;28;20048;-61
2021/05/29 00:58:30;;;;;;;459.43;351.90;;;;;;;12.18;64.17;98999.19;5029490;28;20757;-61
2021/05/29 01:00:56;;;;;;;465.20;346.13;;;;;;;12.14;64.17;99002.69;5046276;28;20264;-61
2021/05/29 01:03:22;;;;;;;458.97;353.43;;;;;;;12.19;63.55;99001.72;5029533;28;20034;-62
2021/05/29 01:05:48;;;;;;;457.50;338.83;;;;;;;12.18;63.20;99005.16;5047506;28;20298;-62
2021/05/29 01:08:13;;;;;;;459.47;352.93;;;;;;;12.19;62.92;98990.59;5036104;28;20427;-62
2021/05/29 01:10:39;;;;;;;460.67;344.27;;;;;;;12.25;63.31;99001.63;5054049;28;20120;-62
2021/05/29 01:13:07;;;;;;;453.50;333.80;;;;;;;12.36;62.55;99007.38;5051452;28;20029;-62
2021/05/29 01:15:39;;;;;;;452.87;337.70;;;;;;;12.31;63.09;99000.63;5051399;28;20318;-62
2021/05/29 01:18:08;;;;;;;458.80;350.90;;;;;;;12.36;62.71;98991.13;5051651;28;20282;-62
2021/05/29 01:20:33;;;;;;;455.23;335.50;;;;;;;12.29;62.54;98995.53;5051011;28;20371;-62
2021/05/29 01:22:59;;;;;;;461.23;349.53;;;;;;;12.26;63.27;98990.44;5051659;28;20350;-62
2021/05/29 01:25:32;;;;;;;460.03;344.70;;;;;;;12.25;63.44;98987.91;5051480;28;20033;-62
2021/05/29 01:28:04;;;;;;;466.60;355.07;;;;;;;12.28;63.05;98993.00;5048335;28;20030;-62
2021/05/29 01:30:40;;;;;;;460.23;353.27;;;;;;;12.26;64.06;99002.47;5051367;28;20310;-62
2021/05/29 01:33:10;;;;;;;455.03;335.47;;;;;;;12.23;63.79;99002.50;5049232;28;20283;-62
2021/05/29 01:35:36;;;;;;;459.00;347.00;;;;;;;12.13;64.33;98999.31;5048958;28;20275;-62
2021/05/29 01:38:01;;;;;;;460.77;346.73;;;;;;;12.18;63.93;99001.75;5049076;28;20279;-62
2021/05/29 01:40:27;;;;;;;458.97;343.10;;;;;;;12.13;64.28;99006.16;5050366;28;20275;-62
2021/05/29 01:42:52;;;;;;;456.17;340.10;;;;;;;12.11;64.42;99008.75;5049542;28;20075;-62
2021/05/29 01:45:18;;;;;;;456.63;337.07;;;;;;;12.14;64.04;99002.69;5049661;28;20116;-62
2021/05/29 01:47:45;;;;;;;455.63;344.03;;;;;;;12.19;64.17;99009.44;5048741;28;20033;-62
2021/05/29 01:50:14;;;;;;;454.60;332.70;;;;;;;12.13;64.72;99003.59;5053308;28;20285;-62
2021/05/29 01:53:04;;;;;;;453.30;333.20;;;;;;;12.13;64.83;99001.88;5046620;28;20280;-62
2021/05/29 01:55:32;;;;;;;455.47;336.73;;;;;;;12.20;64.37;98998.28;5047649;28;20275;-61
2021/05/29 01:57:59;;;;;;;453.63;325.97;;;;;;;12.16;64.32;99001.81;5048715;28;20273;-60
2021/05/29 02:00:27;;;;;;;456.73;336.67;;;;;;;12.12;64.72;98997.59;5050199;28;20256;-63
2021/05/29 02:02:52;;;;;;;455.00;337.90;;;;;;;12.11;64.50;99000.19;5052350;28;20283;-62
2021/05/29 02:05:19;;;;;;;455.93;342.27;;;;;;;12.15;64.20;98994.97;5050577;28;20283;-62
2021/05/29 02:07:45;;;;;;;458.30;331.27;;;;;;;12.17;64.32;99000.09;5051345;28;20029;-60
2021/05/29 02:10:23;;;;;;;457.17;337.90;;;;;;;12.23;64.64;99005.09;5046993;28;20871;-62
2021/05/29 02:12:55;;;;;;;454.17;336.53;;;;;;;12.29;63.97;99010.13;5052988;28;20039;-60
2021/05/29 02:15:23;;;;;;;455.60;339.73;;;;;;;12.24;64.38;99006.78;5050885;28;20275;-62
2021/05/29 02:17:51;;;;;;;457.30;339.50;;;;;;;12.28;63.90;99011.84;5049904;28;20374;-61
2021/05/29 02:20:19;;;;;;;454.67;336.10;;;;;;;12.24;63.42;99005.06;5048594;28;20564;-60
2021/05/29 02:22:44;;;;;;;454.77;333.77;;;;;;;12.24;63.74;98999.94;5047414;28;20291;-60
2021/05/29 02:25:10;;;;;;;453.63;332.63;;;;;;;12.21;63.38;98976.00;5047500;28;20267;-60
2021/05/29 02:27:36;;;;;;;456.03;343.47;;;;;;;12.34;63.03;98990.31;5030124;28;20278;-62
2021/05/29 02:30:05;;;;;;;464.57;346.87;;;;;;;12.27;63.29;98975.88;5050226;28;20287;-62
2021/05/29 02:32:31;;;;;;;452.23;332.17;;;;;;;12.26;63.43;98982.72;5051644;28;20270;-62
2021/05/29 02:34:56;;;;;;;459.60;341.40;;;;;;;12.26;63.37;98987.06;5049979;28;20286;-62
2021/05/29 02:37:22;;;;;;;459.33;343.67;;;;;;;12.29;63.61;98994.69;5050072;28;20040;-62
2021/05/29 02:39:47;;;;;;;455.60;342.87;;;;;;;12.24;63.37;98996.50;5048777;28;20035;-61
2021/05/29 02:42:13;;;;;;;457.17;341.37;;;;;;;12.17;63.71;98989.81;5047844;28;20384;-62
2021/05/29 02:44:39;;;;;;;455.10;334.10;;;;;;;12.14;63.65;98998.41;5047970;28;20107;-61
2021/05/29 02:47:04;;;;;;;453.50;341.33;;;;;;;12.18;63.44;98997.47;5048955;28;20042;-62
2021/05/29 02:49:30;;;;;;;455.37;344.40;;;;;;;12.23;62.68;98999.94;5049972;28;20052;-62
2021/05/29 02:51:55;;;;;;;457.13;341.77;;;;;;;12.28;62.65;98998.97;5047996;28;20036;-62
2021/05/29 02:54:22;;;;;;;453.60;336.40;;;;;;;12.28;62.58;99001.56;5051788;28;20029;-62
2021/05/29 02:56:48;;;;;;;452.37;333.43;;;;;;;12.28;63.13;99005.84;5049428;28;20088;-62
2021/05/29 02:59:14;;;;;;;451.33;324.73;;;;;;;12.21;63.01;98987.13;5050105;28;20322;-62
2021/05/29 03:01:40;;;;;;;455.63;334.60;;;;;;;12.21;63.03;98994.84;5046362;28;20560;-62
2021/05/29 03:04:05;;;;;;;458.63;344.07;;;;;;;12.20;62.68;98997.44;5048224;28;20033;-61
2021/05/29 03:06:31;;;;;;;457.10;339.20;;;;;;;12.17;62.18;99000.94;5049621;28;20140;-61
2021/05/29 03:08:57;;;;;;;456.77;335.20;;;;;;;12.06;63.71;99013.13;5048225;28;20029;-61
2021/05/29 03:11:23;;;;;;;457.33;337.30;;;;;;;12.08;63.70;99013.09;5050547;28;20029;-62
2021/05/29 03:13:49;;;;;;;454.80;331.83;;;;;;;12.06;62.86;99000.28;5038943;28;20294;-62
2021/05/29 03:16:14;;;;;;;454.47;338.03;;;;;;;12.10;63.09;99004.47;5048341;28;20044;-62
2021/05/29 03:18:39;;;;;;;456.37;341.20;;;;;;;12.08;63.07;99002.81;5052542;28;20063;-61
2021/05/29 03:21:05;;;;;;;455.73;331.87;;;;;;;12.05;63.03;99003.72;5048087;28;20054;-61
2021/05/29 03:23:30;;;;;;;457.37;334.80;;;;;;;11.95;63.27;98994.50;5030631;28;20039;-61
2021/05/29 03:25:56;;;;;;;457.17;337.03;;;;;;;12.02;63.28;98997.78;5045098;28;20461;-61
2021/05/29 03:28:21;;;;;;;456.43;333.07;;;;;;;12.03;62.04;99004.63;5049119;28;20035;-61
2021/05/29 03:30:47;;;;;;;455.43;331.97;;;;;;;11.99;61.80;99008.97;5048860;28;20072;-62
2021/05/29 03:33:13;;;;;;;456.20;336.10;;;;;;;12.01;62.63;99016.69;5048616;28;20042;-63
2021/05/29 03:35:40;;;;;;;458.40;349.97;;;;;;;12.04;62.26;99017.47;5048778;28;20317;-63
2021/05/29 03:38:05;;;;;;;462.27;355.53;;;;;;;12.03;61.35;99013.19;5049011;28;20305;-60
2021/05/29 03:40:31;;;;;;;456.50;338.07;;;;;;;12.13;60.82;99016.44;5046777;28;20279;-62
2021/05/29 03:42:56;;;;;;;458.03;336.83;;;;;;;12.15;60.48;99030.94;5047622;28;20025;-62
2021/05/29 03:45:22;;;;;;;456.33;333.00;;;;;;;12.15;60.43;99030.94;5050787;28;20035;-61
2021/05/29 03:47:49;;;;;;;456.90;334.20;;;;;;;12.18;60.85;99033.44;5048927;28;21006;-61
2021/05/29 03:50:20;;;;;;;457.33;337.47;;;;;;;12.16;61.17;99037.78;5046948;28;20068;-61
2021/05/29 03:52:46;;;;;;;467.03;349.73;;;;;;;12.16;61.62;99039.50;5049639;28;20366;-61
2021/05/29 03:55:13;;;;;;;451.60;330.00;;;;;;;12.15;61.16;99035.22;5048512;28;20350;-62
2021/05/29 03:57:38;;;;;;;455.60;334.07;;;;;;;12.13;61.17;99039.56;5047175;28;20025;-61
2021/05/29 04:00:07;;;;;;;453.30;340.87;;;;;;;12.17;61.41;99038.63;5050079;28;20274;-63
2021/05/29 04:02:32;;;;;;;455.37;338.23;;;;;;;12.14;61.74;99036.09;5046567;28;20035;-61
2021/05/29 04:04:58;;;;;;;453.30;334.70;;;;;;;12.14;61.79;99033.53;5046699;28;20275;-62
2021/05/29 04:07:23;;;;;;;457.00;335.77;;;;;;;12.18;61.06;99032.59;5046636;28;20033;-61
2021/05/29 04:09:48;;;;;;;462.30;347.40;;;;;;;12.22;60.97;99039.41;5046533;28;20032;-60
2021/05/29 04:12:14;;;;;;;454.17;336.20;;;;;;;12.21;60.77;99033.41;5047893;28;20393;-61
2021/05/29 04:14:39;;;;;;;457.37;343.73;;;;;;;12.28;59.85;99041.84;5045520;28;20032;-61
2021/05/29 04:17:05;;;;;;;455.27;338.87;;;;;;;12.30;60.47;99042.66;5046401;28;20040;-61
2021/05/29 04:19:30;;;;;;;458.07;336.93;;;;;;;12.37;60.15;99041.66;5045712;28;20043;-62
2021/05/29 04:21:55;;;;;;;459.57;347.43;;;;;;;12.44;60.04;99039.81;5045560;28;20028;-61
2021/05/29 04:24:21;;;;;;;457.77;331.27;;;;;;;12.45;60.20;99033.78;5049831;28;20039;-61
2021/05/29 04:26:46;;;;;;;455.70;337.93;;;;;;;12.39;59.71;99042.47;5046554;28;20033;-62
2021/05/29 04:29:12;;;;;;;458.30;342.23;;;;;;;12.50;59.30;99037.13;5047169;28;20028;-61
2021/05/29 04:31:37;;;;;;;453.73;332.77;;;;;;;12.44;59.42;99039.81;5047712;28;20041;-61
2021/05/29 04:34:03;;;;;;;458.53;342.33;;;;;;;12.46;59.86;99044.06;5046896;28;20037;-61
2021/05/29 04:36:28;;;;;;;457.50;339.40;;;;;;;12.53;59.56;99037.91;5046326;28;20032;-60
2021/05/29 04:38:53;;;;;;;459.83;345.87;;;;;;;12.56;59.77;99042.97;5035365;28;20564;-61
2021/05/29 04:41:21;;;;;;;457.97;339.20;;;;;;;12.62;59.65;99040.28;5048833;28;20421;-62
2021/05/29 04:43:47;;;;;;;458.43;344.83;;;;;;;12.79;59.24;99038.22;5049911;28;20097;-62
2021/05/29 04:46:12;;;;;;;453.73;341.60;;;;;;;12.72;59.49;99043.53;5048893;28;20086;-62
2021/05/29 04:48:37;;;;;;;456.27;343.33;;;;;;;12.83;59.56;99039.84;5046579;28;20308;-62
2021/05/29 04:51:14;;;;;;;456.40;350.17;;;;;;;12.69;59.91;99039.28;5046303;28;20076;-62
2021/05/29 04:53:48;;;;;;;459.37;346.90;;;;;;;12.66;60.48;99033.34;5047631;28;20311;-62
2021/05/29 04:56:15;;;;;;;453.45;331.95;;;;;;;12.68;60.72;99040.19;5048417;28;20287;-61
2021/05/29 04:58:41;;;;;;;462.30;351.73;;;;;;;12.74;60.11;99034.88;5045584;28;20127;-62
2021/05/29 05:01:08;;;;;;;456.10;350.27;;;;;;;12.75;59.90;99028.03;5046554;28;20269;-62
2021/05/29 05:03:34;;;;;;;456.57;351.03;;;;;;;12.69;59.44;99035.84;5047051;28;20036;-62
2021/05/29 05:05:59;;;;;;;455.07;349.27;;;;;;;12.64;59.46;99046.25;5029838;28;20278;-61
2021/05/29 05:08:25;;;;;;;462.23;350.63;;;;;;;12.61;59.74;99037.75;5050487;28;20424;-62
2021/05/29 05:10:51;;;;;;;466.40;347.63;;;;;;;12.70;59.27;99040.97;5048415;28;20116;-62
2021/05/29 05:13:17;;;;;;;457.47;346.00;;;;;;;12.65;59.34;99047.94;5050282;28;20096;-62
2021/05/29 05:15:43;;;;;;;458.07;349.57;;;;;;;12.59;59.77;99045.50;5047253;28;20275;-60
2021/05/29 05:18:08;;;;;;;458.53;351.70;;;;;;;12.70;59.40;99046.13;5048057;28;20321;-61
2021/05/29 05:20:36;;;;;;;458.80;352.30;;;;;;;12.84;58.96;99040.69;5048296;28;20057;-62
2021/05/29 05:23:02;;;;;;;459.37;356.77;;;;;;;13.00;57.91;99054.06;5052040;28;20028;-62
2021/05/29 05:25:28;;;;;;;467.50;371.17;;;;;;;13.20;58.50;99036.47;5044096;28;20283;-62
2021/05/29 05:27:54;;;;;;;464.07;372.77;;;;;;;13.23;57.26;99036.41;5047677;28;20283;-62
2021/05/29 05:30:21;;;;;;;461.20;367.67;;;;;;;13.22;57.50;99033.00;5043691;28;20063;-60
2021/05/29 05:32:46;;;;;;;468.73;373.77;;;;;;;13.41;57.30;99030.00;5048912;28;20028;-61
2021/05/29 05:35:15;;;;;;;466.93;377.50;;;;;;;13.31;56.87;99029.34;5044950;28;20051;-61
2021/05/29 05:37:41;;;;;;;468.83;386.07;;;;;;;13.44;57.03;99035.91;5047850;28;20029;-61
2021/05/29 05:40:08;;;;;;;461.13;372.17;;;;;;;13.51;56.66;99031.44;5046105;28;20041;-61
2021/05/29 05:42:34;;;;;;;463.27;385.03;;;;;;;13.50;55.57;99019.44;5047871;28;20082;-62
2021/05/29 05:45:00;;;;;;;468.50;382.57;;;;;;;13.67;54.56;99038.75;5045281;28;20566;-61
2021/05/29 05:47:26;;;;;;;466.83;389.03;;;;;;;13.73;54.81;99028.31;5045610;28;20044;-60
2021/05/29 05:49:51;;;;;;;469.43;390.70;;;;;;;13.80;54.63;99038.44;5046821;28;20065;-61
2021/05/29 05:52:17;;;;;;;462.40;380.03;;;;;;;13.79;54.79;99036.78;5047180;28;20075;-61
2021/05/29 05:54:42;;;;;;;470.73;399.20;;;;;;;13.87;53.80;99032.28;5048204;28;20055;-61
2021/05/29 05:57:08;;;;;;;468.33;404.20;;;;;;;13.74;54.25;99044.63;5052314;28;20040;-62
2021/05/29 05:59:33;;;;;;;465.43;395.50;;;;;;;14.00;54.53;99037.03;5052954;28;20029;-62
2021/05/29 06:01:58;;;;;;;466.50;393.83;;;;;;;14.03;53.69;99038.72;5048805;28;20032;-62
2021/05/29 06:04:24;;;;;;;468.37;394.70;;;;;;;14.06;54.31;99041.19;5037859;28;20032;-62
2021/05/29 06:06:49;;;;;;;467.20;404.63;;;;;;;14.00;54.50;99038.81;5051674;28;20083;-62
2021/05/29 06:09:15;;;;;;;464.67;397.50;;;;;;;14.13;53.76;99037.59;5052402;28;20044;-62
2021/05/29 06:11:42;;;;;;;473.10;418.33;;;;;;;14.16;52.15;99046.09;5051598;28;20079;-61
2021/05/29 06:19:21;;;;;;;465.43;397.17;;;;;;;13.98;52.06;99049.16;5048140;28;20098;-62
2021/05/29 06:21:50;;;;;;;467.10;379.53;;;;;;;13.95;53.66;99041.50;5049389;28;20024;-61
2021/05/29 06:24:22;;;;;;;467.77;397.87;;;;;;;14.25;52.95;99054.47;5045840;28;20037;-61
2021/05/29 06:26:48;;;;;;;470.07;407.57;;;;;;;14.40;51.54;99048.91;5048138;28;20113;-60
2021/05/29 06:29:15;;;;;;;468.97;402.37;;;;;;;14.16;52.84;99056.41;5048281;28;20084;-60
2021/05/29 06:31:40;;;;;;;473.47;417.47;;;;;;;14.24;52.65;99057.91;5048723;28;20074;-62
2021/05/29 06:34:06;;;;;;;476.27;423.83;;;;;;;14.64;52.60;99059.38;5045681;28;20370;-61
2021/05/29 06:36:31;;;;;;;472.23;419.97;;;;;;;15.00;52.35;99061.78;5049823;28;20112;-61
2021/05/29 06:38:57;;;;;;;485.17;432.77;;;;;;;15.45;50.00;99064.69;5047698;28;20604;-61
2021/05/29 06:41:23;;;;;;;504.00;450.80;;;;;;;15.56;50.05;99060.06;5048132;28;20025;-61
2021/05/29 06:43:50;;;;;;;516.50;463.33;;;;;;;15.87;49.67;99062.50;5049948;28;20067;-61
2021/05/29 06:46:16;;;;;;;527.10;473.70;;;;;;;16.06;48.63;99066.16;5047901;28;20031;-61
2021/05/29 06:48:41;;;;;;;538.20;484.60;;;;;;;15.88;49.73;99070.19;5049277;28;20282;-61
2021/05/29 06:51:09;;;;;;;554.00;499.83;;;;;;;16.24;48.94;99057.75;5052240;28;20053;-61
2021/05/29 06:53:40;;;;;;;559.73;505.50;;;;;;;16.35;47.72;99062.53;5048426;28;20033;-61
2021/05/29 06:58:51;;;;;;;577.30;522.83;;;;;;;16.65;46.75;99061.47;5048792;28;20044;-60
2021/05/29 07:01:20;;;;;;;593.50;538.10;;;;;;;16.52;46.74;99057.59;5045816;28;20028;-61
2021/05/29 07:03:47;;;;;;;582.70;527.97;;;;;;;16.06;48.12;99065.28;5050469;28;20382;-60
2021/05/29 07:06:13;;;;;;;583.07;528.13;;;;;;;15.87;48.54;99070.25;5046618;28;20079;-60
2021/05/29 07:08:39;;;;;;;589.23;534.27;;;;;;;15.67;49.95;99063.16;5049525;28;20072;-60
2021/05/29 07:11:04;;;;;;;586.13;531.03;;;;;;;15.87;48.89;99063.31;5048652;28;20088;-59
2021/05/29 07:13:30;;;;;;;583.93;529.07;;;;;;;16.09;48.27;99055.69;5048263;28;20039;-60
2021/05/29 07:15:55;;;;;;;580.23;525.60;;;;;;;16.02;48.27;99058.53;5035651;28;20038;-60
2021/05/29 07:18:24;;;;;;;589.97;535.13;;;;;;;16.44;46.84;99059.63;5048777;28;20036;-60
2021/05/29 07:20:49;;;;;;;574.77;520.37;;;;;;;16.24;47.42;99055.16;5050005;28;20056;-60
2021/05/29 07:23:14;;;;;;;594.20;539.07;;;;;;;16.32;46.66;99047.97;5048407;28;20036;-60
2021/05/29 07:25:41;;;;;;;604.57;549.07;;;;;;;16.55;46.50;99046.31;5049257;28;20037;-60
2021/05/29 07:28:06;;;;;;;602.30;547.13;;;;;;;16.58;46.39;99049.66;5049629;28;20039;-60
2021/05/29 07:30:32;;;;;;;608.03;552.83;;;;;;;16.38;47.25;99052.06;5048976;28;20037;-60
2021/05/29 07:32:57;;;;;;;593.70;538.83;;;;;;;15.95;47.98;99050.97;5047875;28;20037;-62
2021/05/29 07:35:23;;;;;;;564.87;510.47;;;;;;;15.73;48.27;99050.03;5047806;28;20033;-59
2021/05/29 07:37:49;;;;;;;576.03;521.23;;;;;;;15.62;47.84;99043.50;5050517;28;20033;-61
2021/05/29 07:40:15;;;;;;;556.90;502.33;;;;;;;15.71;47.52;99048.38;5045528;28;20417;-60
2021/05/29 07:42:41;;;;;;;579.20;524.03;;;;;;;15.82;47.45;99048.88;5035633;28;20370;-61
2021/05/29 07:45:07;;;;;;;577.00;522.03;;;;;;;16.15;45.33;99039.13;5048857;28;20048;-60
2021/05/29 07:47:33;;;;;;;584.87;529.70;;;;;;;16.53;45.55;99040.34;5047983;28;20401;-60
2021/05/29 07:49:59;;;;;;;580.40;525.47;;;;;;;16.83;44.62;99041.84;5046906;28;20092;-60
2021/05/29 07:52:24;;;;;;;586.47;531.60;;;;;;;16.87;44.83;99046.00;5048938;28;20241;-60
2021/05/29 07:54:49;;;;;;;602.63;547.47;;;;;;;16.61;45.00;99035.75;5048660;28;20037;-61
2021/05/29 07:57:15;;;;;;;581.10;525.60;;;;;;;16.28;44.29;99033.47;5038024;28;20032;-59
2021/05/29 07:59:42;;;;;;;596.40;541.13;;;;;;;16.35;44.09;99037.50;5036530;28;20033;-60
2021/05/29 08:02:09;;;;;;;616.77;560.87;;;;;;;16.22;45.02;99040.59;5047304;28;20278;-60
2021/05/29 08:04:35;;;;;;;593.47;538.53;;;;;;;16.44;45.26;99038.94;5048971;28;20044;-59
2021/05/29 08:07:01;;;;;;;601.77;546.63;;;;;;;16.53;45.29;99045.50;5045822;28;20033;-60
2021/05/29 08:09:27;;;;;;;602.20;547.10;;;;;;;16.89;45.59;99049.34;5048898;28;20025;-62
2021/05/29 08:11:52;;;;;;;595.83;540.83;;;;;;;16.76;45.96;99050.75;5047026;28;20032;-61
2021/05/29 08:14:18;;;;;;;594.93;540.00;;;;;;;16.21;45.98;99044.09;5047449;28;20584;-62
2021/05/29 08:16:43;;;;;;;591.80;537.03;;;;;;;16.49;45.08;99047.38;5050159;28;20086;-62
2021/05/29 08:19:12;;;;;;;594.50;539.63;;;;;;;16.51;43.71;99045.56;5047287;28;20026;-62
2021/05/29 08:21:40;;;;;;;592.37;537.23;;;;;;;16.64;43.91;99040.81;5048272;28;20033;-62
2021/05/29 08:24:06;;;;;;;587.37;532.63;;;;;;;16.52;43.13;99034.31;5046850;28;20036;-62
2021/05/29 08:26:32;;;;;;;598.03;543.00;;;;;;;16.66;43.20;99033.84;5048479;28;20073;-63
2021/05/29 08:28:57;;;;;;;604.10;548.37;;;;;;;16.86;43.47;99039.97;5048122;28;20025;-61
2021/05/29 08:31:23;;;;;;;614.63;559.33;;;;;;;16.83;44.17;99044.41;5046891;28;20027;-61
2021/05/29 08:33:49;;;;;;;617.33;562.20;;;;;;;16.81;43.22;99036.69;5048467;28;20052;-61
2021/05/29 08:36:15;;;;;;;612.27;557.00;;;;;;;16.87;43.41;99040.81;5046728;28;20031;-61
2021/05/29 08:38:41;;;;;;;612.10;556.83;;;;;;;17.23;43.26;99047.16;5048170;28;20021;-59
2021/05/29 08:41:08;;;;;;;636.03;580.17;;;;;;;17.67;42.59;99044.56;5046149;28;20028;-60
2021/05/29 08:43:34;;;;;;;620.27;564.90;;;;;;;17.38;42.99;99047.47;5044739;28;20029;-60
2021/05/29 08:46:00;;;;;;;652.00;595.23;;;;;;;16.86;43.69;99039.13;5046823;28;20037;-60
2021/05/29 08:48:25;;;;;;;638.77;582.13;;;;;;;16.72;44.28;99037.03;5047164;28;20029;-59
2021/05/29 08:53:35;;;;;;;628.10;571.53;;;;;;;16.53;45.28;99038.59;5043365;28;20051;-60
2021/05/29 08:56:01;;;;;;;624.80;568.00;;;;;;;16.60;44.87;99042.66;5045036;28;20021;-61
2021/05/29 08:58:28;;;;;;;616.77;560.83;;;;;;;16.90;42.55;99038.09;5045839;28;20021;-61
2021/05/29 09:00:54;;;;;;;624.20;567.67;;;;;;;17.27;42.68;99043.53;5044180;28;20624;-61
2021/05/29 09:03:20;;;;;;;628.23;571.90;;;;;;;17.46;41.59;99035.88;5045783;28;20036;-60
2021/05/29 09:05:52;;;;;;;648.30;591.30;;;;;;;17.80;41.23;99035.38;5045521;28;20025;-61
2021/05/29 09:08:23;;;;;;;648.50;591.43;;;;;;;18.22;41.03;99035.31;5046285;28;20075;-60
2021/05/29 09:10:52;;;;;;;656.67;599.97;;;;;;;18.14;41.20;99027.84;5046449;28;20271;-61
2021/05/29 09:13:37;;;;;;;685.67;628.17;;;;;;;18.32;40.90;99034.00;5046851;28;20084;-61
2021/05/29 09:16:05;;;;;;;690.70;632.07;;;;;;;17.94;41.74;99033.06;5046556;28;20041;-62
2021/05/29 09:18:36;;;;;;;671.43;614.67;;;;;;;17.91;42.10;99043.53;5046998;28;20654;-61
2021/05/29 09:21:11;;;;;;;667.57;609.90;;;;;;;17.77;41.49;99038.13;5046449;28;20029;-61
2021/05/29 09:24:05;;;;;;;680.92;623.90;;;;;;;17.93;41.22;99041.75;5046831;28;20377;-62
2021/05/29 09:26:46;;;;;;;668.30;611.40;;;;;;;17.73;41.25;99040.00;5046444;28;20040;-62
2021/05/29 09:29:22;;;;;;;675.27;618.30;;;;;;;17.36;42.55;99031.97;5047019;28;20028;-61
2021/05/29 09:31:56;;;;;;;711.90;652.40;;;;;;;17.17;43.13;99039.63;5048327;28;20045;-61
2021/05/29 09:34:39;;;;;;;645.27;589.00;;;;;;;17.00;43.47;99031.69;5050582;28;20320;-61
2021/05/29 09:37:09;;;;;;;599.30;544.67;;;;;;;16.65;44.55;99038.19;5048428;28;20070;-61
2021/05/29 09:39:41;;;;;;;609.57;554.50;;;;;;;17.17;43.09;99033.59;5050230;28;20414;-61
2021/05/29 09:42:08;;;;;;;600.43;545.77;;;;;;;17.58;42.46;99037.16;5049823;28;20047;-61
2021/05/29 09:44:35;;;;;;;600.37;545.73;;;;;;;16.93;43.04;99030.19;5049301;28;20453;-61
2021/05/29 09:47:04;;;;;;;599.47;544.87;;;;;;;16.82;43.67;99034.94;5050862;28;20020;-61
2021/05/29 09:49:49;;;;;;;585.70;531.30;;;;;;;17.25;44.06;99031.56;5048712;28;20048;-61
2021/05/29 09:52:35;;;;;;;;;;;;;;;17.71;42.07;99027.97;5048953;28;20032;-61
2021/05/29 09:55:05;;;;;;;568.67;514.45;;;;;;;17.88;40.49;99015.16;5048410;28;19913;-62
2021/05/29 09:57:48;;;;;;;612.73;557.40;;;;;;;17.61;41.82;99018.91;5048452;28;20627;-61
2021/05/29 10:00:14;;;;;;;587.10;532.50;;;;;;;16.99;41.97;99022.22;5050579;28;20025;-62
2021/05/29 10:02:56;;;;;;;605.00;550.07;;;;;;;17.12;42.62;99023.44;5049144;28;20095;-62
2021/05/29 10:05:33;;;;;;;602.37;547.50;;;;;;;17.02;41.43;99024.66;5046974;28;20032;-62
2021/05/29 10:07:59;;;;;;;580.93;526.43;;;;;;;16.96;43.45;99021.50;5047726;28;20029;-61
2021/05/29 10:10:26;;;;;;;599.07;543.93;;;;;;;17.31;43.02;99016.59;5048110;28;20032;-61
2021/05/29 10:12:52;;;;;;;608.17;553.13;;;;;;;17.54;42.25;99015.69;5049240;28;20611;-61
2021/05/29 10:15:18;;;;;;;606.43;551.47;;;;;;;17.57;39.93;99019.88;5048181;28;20032;-61
2021/05/29 10:17:46;;;;;;;603.07;548.23;;;;;;;17.55;38.46;99008.75;5048043;28;20131;-61
2021/05/29 10:20:12;;;;;;;604.00;549.23;;;;;;;17.27;39.94;99014.22;5051362;28;20025;-61
2021/05/29 10:22:38;;;;;;;601.03;546.47;;;;;;;17.30;39.56;99014.09;5045394;28;20021;-61
2021/05/29 10:25:11;;;;;;;601.33;546.83;;;;;;;17.57;38.06;98996.53;5050812;28;20562;-61
2021/05/29 10:27:38;;;;;;;619.60;564.47;;;;;;;17.65;38.71;99016.09;5048717;28;20025;-61
2021/05/29 10:30:05;;;;;;;608.10;552.90;;;;;;;17.71;38.55;99008.06;5049612;28;20518;-61
2021/05/29 10:32:30;;;;;;;611.77;556.93;;;;;;;17.74;38.24;99007.09;5048211;28;20033;-62
2021/05/29 10:35:00;;;;;;;622.10;566.93;;;;;;;17.99;37.09;99014.72;5048870;28;20024;-62
2021/05/29 10:37:33;;;;;;;642.43;586.47;;;;;;;18.30;37.45;99001.22;5050058;28;20031;-61
2021/05/29 10:40:28;;;;;;;650.83;594.83;;;;;;;18.77;37.66;99009.50;5050897;28;20087;-61
2021/05/29 10:43:03;;;;;;;633.17;577.85;;;;;;;18.37;36.60;99006.09;5048489;28;20024;-61
2021/05/29 10:45:29;;;;;;;634.22;578.88;;;;;;;17.93;39.29;99012.38;5050030;28;20033;-62
2021/05/29 10:48:12;;;;;;;642.10;586.50;;;;;;;18.24;38.19;99000.59;5049972;28;20627;-61
2021/05/29 10:50:53;;;;;;;644.00;588.50;;;;;;;18.33;38.60;99003.69;5050684;28;20492;-61
2021/05/29 10:53:39;;;;;;;647.23;591.47;;;;;;;18.35;38.16;99004.47;5047708;28;20024;-61
2021/05/29 10:56:17;;;;;;;650.40;594.55;;;;;;;18.43;38.80;99000.59;5048116;28;20026;-61
2021/05/29 10:59:09;;;;;;;649.33;593.60;;;;;;;18.76;36.96;98998.25;5047907;28;20033;-61
2021/05/29 11:01:48;;;;;;;672.87;616.33;;;;;;;18.37;37.49;98998.31;5047817;28;20281;-61
2021/05/29 11:04:25;;;;;;;655.07;599.47;;;;;;;18.17;38.47;99006.09;5051422;28;20039;-61
2021/05/29 11:06:52;;;;;;;648.87;593.23;;;;;;;17.30;41.27;99008.91;5049713;28;20377;-61
2021/05/29 11:09:38;;;;;;;618.50;563.37;;;;;;;16.76;41.11;99027.44;5049989;28;20062;-61
2021/05/29 11:12:05;;;;;;;607.67;552.63;;;;;;;16.84;41.66;99030.56;5047211;28;20483;-61
2021/05/29 11:14:49;;;;;;;592.03;537.57;;;;;;;17.17;41.25;99026.69;5047906;28;20036;-61